Historique des mesures à Cassis (13260), France
Quotidien Résumé Juin 9, 2021 Unités:  Métrique    US   Métrique/US
Quotidien Hebdomadaire Mensuel Annuel
  Maximum: Minimum: Moyenne:
Température: 32.2 °C 20.4 °C 25.7 °C
Point de rosée: 16.7 °C 9.2 °C 12.3 °C
Humidité: 64% 31% 44%
Vitesse du vent: 20.2km/h 0km/h 6km/h
Rafales: 25.6km/h - -
Vent- - WSW
Pression: 1014.5 hPa 1012.7 hPa -
Précipitations: 0.0 mm    
Historical Graphs
 
 
Mesures pour : Juin 9, 2021
Heure Temperature Point de rosée Pression Vent Vitesse du vent Rafales Humidité Pluie (par heure)
00:11 20.9 °C 13.8 °C 1013.1 hPa Calm   3.2 km/h 64% 0.0 mm
01:11 20.6 °C 13.3 °C 1013.5 hPa West 1.4 km/h 1.4 km/h 63% 0.0 mm
02:11 20.4 °C 12.9 °C 1013.3 hPa Calm     62% 0.0 mm
03:11 20.6 °C 11.8 °C 1013.0 hPa NNW 8.6 km/h 9 km/h 57% 0.0 mm
04:11 21.1 °C 11.1 °C 1012.9 hPa NNW 14.4 km/h 25.6 km/h 53% 0.0 mm
05:11 21.5 °C 10 °C 1012.7 hPa NW 20.2 km/h 21.6 km/h 48% 0.0 mm
06:11 20.9 °C 9.8 °C 1012.7 hPa NW 13 km/h 19.1 km/h 49% 0.0 mm
07:11 21.3 °C 9.2 °C 1013.2 hPa NW 7.2 km/h 16.2 km/h 46% 0.0 mm
08:11 28.9 °C 11.4 °C 1013.3 hPa NW 2.5 km/h 7.6 km/h 34% 0.0 mm
09:11 26.3 °C 10.4 °C 1013.5 hPa NW 1.1 km/h 11.2 km/h 37% 0.0 mm
10:11 25.6 °C 10.6 °C 1014.0 hPa Calm   7.9 km/h 39% 0.0 mm
11:11 28.8 °C 10.8 °C 1014.0 hPa WNW 2.5 km/h 9.4 km/h 33% 0.0 mm
12:11 30.9 °C 11.8 °C 1013.4 hPa NW 12.2 km/h 22 km/h 31% 0.0 mm
13:11 32.2 °C 13.8 °C 1013.9 hPa ESE 5.8 km/h 12.6 km/h 33% 0.0 mm
14:11 31.3 °C 15.2 °C 1013.5 hPa SE 12.2 km/h 14 km/h 38% 0.0 mm
15:11 29.8 °C 15.9 °C 1014.1 hPa ESE 4.3 km/h 9.4 km/h 43% 0.0 mm
16:11 29.2 °C 16.7 °C 1014.5 hPa SSE 2.2 km/h 11.9 km/h 47% 0.0 mm
17:11 28.8 °C 14.3 °C 1014.4 hPa SE 2.2 km/h 5.4 km/h 41% 0.0 mm
18:11 28.1 °C 13.6 °C 1014.0 hPa Calm   5 km/h 41% 0.0 mm
19:11 27.8 °C 13.7 °C 1013.6 hPa SE 4.7 km/h 5 km/h 42% 0.0 mm
20:11 27.3 °C 13.3 °C 1013.6 hPa Calm     42% 0.0 mm
21:11 25.4 °C 11.2 °C 1013.6 hPa NW 13.3 km/h 14.8 km/h 41% 0.0 mm
22:11 24.9 °C 10.8 °C 1014.0 hPa NW 8.6 km/h 8.6 km/h 41% 0.0 mm
23:11 24.6 °C 10.5 °C 1014.3 hPa NNW 6.5 km/h 13.7 km/h 41% 0.0 mm
Observations météo à CASSIS
WU-History script by Weather Underground - 2 mb